sensor_id;sensor_type;location;lat;lon;timestamp;temperature;humidity
32502;DHT22;18952;52.516;13.460;2023-02-21T00:01:36;7.30;99.90
32502;DHT22;18952;52.516;13.460;2023-02-21T00:04:03;7.30;99.90
32502;DHT22;18952;52.516;13.460;2023-02-21T00:06:30;7.30;99.90
32502;DHT22;18952;52.516;13.460;2023-02-21T00:08:57;7.40;99.90
32502;DHT22;18952;52.516;13.460;2023-02-21T00:11:24;7.40;99.90
32502;DHT22;18952;52.516;13.460;2023-02-21T00:13:51;7.30;99.90
32502;DHT22;18952;52.516;13.460;2023-02-21T00:16:18;7.30;99.90
32502;DHT22;18952;52.516;13.460;2023-02-21T00:18:45;7.30;99.90
32502;DHT22;18952;52.516;13.460;2023-02-21T00:21:11;7.30;99.90
32502;DHT22;18952;52.516;13.460;2023-02-21T00:23:39;7.30;99.90
32502;DHT22;18952;52.516;13.460;2023-02-21T00:26:06;7.30;99.90
32502;DHT22;18952;52.516;13.460;2023-02-21T00:28:33;7.30;99.90
32502;DHT22;18952;52.516;13.460;2023-02-21T00:30:59;7.30;99.90
32502;DHT22;18952;52.516;13.460;2023-02-21T00:33:26;7.30;99.90
32502;DHT22;18952;52.516;13.460;2023-02-21T00:35:53;7.30;99.90
32502;DHT22;18952;52.516;13.460;2023-02-21T00:38:20;7.30;99.90
32502;DHT22;18952;52.516;13.460;2023-02-21T00:40:47;7.30;99.90
32502;DHT22;18952;52.516;13.460;2023-02-21T00:43:14;7.30;99.90
32502;DHT22;18952;52.516;13.460;2023-02-21T00:45:41;7.30;99.90
32502;DHT22;18952;52.516;13.460;2023-02-21T00:48:08;7.30;99.90
32502;DHT22;18952;52.516;13.460;2023-02-21T00:50:35;7.30;99.90
32502;DHT22;18952;52.516;13.460;2023-02-21T00:53:02;7.30;99.90
32502;DHT22;18952;52.516;13.460;2023-02-21T00:55:29;7.40;99.90
32502;DHT22;18952;52.516;13.460;2023-02-21T00:57:55;7.40;99.90
32502;DHT22;18952;52.516;13.460;2023-02-21T01:00:23;7.30;99.90
32502;DHT22;18952;52.516;13.460;2023-02-21T01:02:50;7.30;99.90
32502;DHT22;18952;52.516;13.460;2023-02-21T01:05:17;7.30;99.90
32502;DHT22;18952;52.516;13.460;2023-02-21T01:07:44;7.30;99.90
32502;DHT22;18952;52.516;13.460;2023-02-21T01:10:11;7.40;99.90
32502;DHT22;18952;52.516;13.460;2023-02-21T01:12:37;7.40;99.90
32502;DHT22;18952;52.516;13.460;2023-02-21T01:15:05;7.40;99.90
32502;DHT22;18952;52.516;13.460;2023-02-21T01:17:32;7.40;99.90
32502;DHT22;18952;52.516;13.460;2023-02-21T01:19:59;7.40;99.90
32502;DHT22;18952;52.516;13.460;2023-02-21T01:22:27;7.40;99.90
32502;DHT22;18952;52.516;13.460;2023-02-21T01:24:54;7.40;99.90
32502;DHT22;18952;52.516;13.460;2023-02-21T01:27:21;7.40;99.90
32502;DHT22;18952;52.516;13.460;2023-02-21T01:29:48;7.40;99.90
32502;DHT22;18952;52.516;13.460;2023-02-21T01:32:15;7.40;99.90
32502;DHT22;18952;52.516;13.460;2023-02-21T01:34:42;7.50;99.90
32502;DHT22;18952;52.516;13.460;2023-02-21T01:37:09;7.40;99.90
32502;DHT22;18952;52.516;13.460;2023-02-21T01:39:37;7.40;99.90
32502;DHT22;18952;52.516;13.460;2023-02-21T01:42:04;7.50;99.90
32502;DHT22;18952;52.516;13.460;2023-02-21T01:44:39;7.50;99.90
32502;DHT22;18952;52.516;13.460;2023-02-21T01:47:09;7.50;99.90
32502;DHT22;18952;52.516;13.460;2023-02-21T01:49:38;7.50;99.90
32502;DHT22;18952;52.516;13.460;2023-02-21T01:52:06;7.50;99.90
32502;DHT22;18952;52.516;13.460;2023-02-21T01:54:37;7.50;99.90
32502;DHT22;18952;52.516;13.460;2023-02-21T01:57:05;7.50;99.90
32502;DHT22;18952;52.516;13.460;2023-02-21T01:59:33;7.50;99.90
32502;DHT22;18952;52.516;13.460;2023-02-21T02:04:47;7.60;99.90
32502;DHT22;18952;52.516;13.460;2023-02-21T02:07:15;7.60;99.90
32502;DHT22;18952;52.516;13.460;2023-02-21T02:09:42;7.60;99.90
32502;DHT22;18952;52.516;13.460;2023-02-21T02:12:43;7.60;99.90
32502;DHT22;18952;52.516;13.460;2023-02-21T02:29:25;7.60;99.90
32502;DHT22;18952;52.516;13.460;2023-02-21T02:37:29;7.70;99.90
32502;DHT22;18952;52.516;13.460;2023-02-21T02:45:45;7.80;99.90
32502;DHT22;18952;52.516;13.460;2023-02-21T02:48:20;7.80;99.90
32502;DHT22;18952;52.516;13.460;2023-02-21T02:50:50;7.80;99.90
32502;DHT22;18952;52.516;13.460;2023-02-21T02:53:24;7.80;99.90
32502;DHT22;18952;52.516;13.460;2023-02-21T02:58:27;7.80;99.90
32502;DHT22;18952;52.516;13.460;2023-02-21T03:01:16;7.80;99.90
32502;DHT22;18952;52.516;13.460;2023-02-21T03:06:46;7.80;99.90
32502;DHT22;18952;52.516;13.460;2023-02-21T03:09:35;7.80;99.90
32502;DHT22;18952;52.516;13.460;2023-02-21T03:12:41;7.80;99.90
32502;DHT22;18952;52.516;13.460;2023-02-21T03:15:27;7.80;99.90
32502;DHT22;18952;52.516;13.460;2023-02-21T03:18:03;7.80;99.90
32502;DHT22;18952;52.516;13.460;2023-02-21T03:20:33;7.80;99.90
32502;DHT22;18952;52.516;13.460;2023-02-21T03:23:02;7.90;99.90
32502;DHT22;18952;52.516;13.460;2023-02-21T03:25:32;7.90;99.90
32502;DHT22;18952;52.516;13.460;2023-02-21T03:28:00;7.90;99.90
32502;DHT22;18952;52.516;13.460;2023-02-21T03:40:03;8.00;99.90
32502;DHT22;18952;52.516;13.460;2023-02-21T03:42:30;8.00;99.90
32502;DHT22;18952;52.516;13.460;2023-02-21T03:44:57;8.10;99.90
32502;DHT22;18952;52.516;13.460;2023-02-21T03:47:24;8.10;99.90
32502;DHT22;18952;52.516;13.460;2023-02-21T03:49:51;8.10;99.90
32502;DHT22;18952;52.516;13.460;2023-02-21T03:52:18;8.20;99.90
32502;DHT22;18952;52.516;13.460;2023-02-21T03:54:46;8.10;99.90
32502;DHT22;18952;52.516;13.460;2023-02-21T03:57:13;8.10;99.90
32502;DHT22;18952;52.516;13.460;2023-02-21T03:59:42;8.10;99.90
32502;DHT22;18952;52.516;13.460;2023-02-21T04:02:09;8.10;99.90
32502;DHT22;18952;52.516;13.460;2023-02-21T04:04:36;8.10;99.90
32502;DHT22;18952;52.516;13.460;2023-02-21T04:07:03;8.10;99.90
32502;DHT22;18952;52.516;13.460;2023-02-21T04:09:30;8.10;99.90
32502;DHT22;18952;52.516;13.460;2023-02-21T04:11:57;8.10;99.90
32502;DHT22;18952;52.516;13.460;2023-02-21T04:14:24;8.10;99.90
32502;DHT22;18952;52.516;13.460;2023-02-21T04:16:51;8.10;99.90
32502;DHT22;18952;52.516;13.460;2023-02-21T04:19:18;8.20;99.90
32502;DHT22;18952;52.516;13.460;2023-02-21T04:21:45;8.20;99.90
32502;DHT22;18952;52.516;13.460;2023-02-21T04:24:14;8.30;99.90
32502;DHT22;18952;52.516;13.460;2023-02-21T04:26:41;8.40;99.90
32502;DHT22;18952;52.516;13.460;2023-02-21T04:29:08;8.30;99.90
32502;DHT22;18952;52.516;13.460;2023-02-21T04:31:35;8.30;99.90
32502;DHT22;18952;52.516;13.460;2023-02-21T04:34:02;8.40;99.90
32502;DHT22;18952;52.516;13.460;2023-02-21T04:36:38;8.40;99.90
32502;DHT22;18952;52.516;13.460;2023-02-21T04:39:06;8.40;99.90
32502;DHT22;18952;52.516;13.460;2023-02-21T04:41:33;8.40;99.90
32502;DHT22;18952;52.516;13.460;2023-02-21T04:44:00;8.40;99.90
32502;DHT22;18952;52.516;13.460;2023-02-21T04:46:27;8.40;99.90
32502;DHT22;18952;52.516;13.460;2023-02-21T04:48:53;8.40;99.90
32502;DHT22;18952;52.516;13.460;2023-02-21T04:51:22;8.40;99.90
32502;DHT22;18952;52.516;13.460;2023-02-21T04:53:51;8.40;99.90
32502;DHT22;18952;52.516;13.460;2023-02-21T04:56:21;8.40;99.90
32502;DHT22;18952;52.516;13.460;2023-02-21T04:58:48;8.50;99.90
32502;DHT22;18952;52.516;13.460;2023-02-21T05:01:16;8.50;99.90
32502;DHT22;18952;52.516;13.460;2023-02-21T05:03:44;8.40;99.90
32502;DHT22;18952;52.516;13.460;2023-02-21T05:06:22;8.30;99.90
32502;DHT22;18952;52.516;13.460;2023-02-21T05:08:50;8.30;99.90
32502;DHT22;18952;52.516;13.460;2023-02-21T05:11:18;8.20;99.90
32502;DHT22;18952;52.516;13.460;2023-02-21T05:13:45;8.10;99.90
32502;DHT22;18952;52.516;13.460;2023-02-21T05:16:13;8.00;99.90
32502;DHT22;18952;52.516;13.460;2023-02-21T05:18:41;8.00;99.90
32502;DHT22;18952;52.516;13.460;2023-02-21T05:21:09;8.00;99.90
32502;DHT22;18952;52.516;13.460;2023-02-21T05:23:37;8.00;99.90
32502;DHT22;18952;52.516;13.460;2023-02-21T05:26:07;8.00;99.90
32502;DHT22;18952;52.516;13.460;2023-02-21T05:28:35;7.90;99.90
32502;DHT22;18952;52.516;13.460;2023-02-21T05:31:02;7.90;99.90
32502;DHT22;18952;52.516;13.460;2023-02-21T05:33:30;7.90;99.90
32502;DHT22;18952;52.516;13.460;2023-02-21T05:35:57;7.90;99.90
32502;DHT22;18952;52.516;13.460;2023-02-21T05:38:24;7.90;99.90
32502;DHT22;18952;52.516;13.460;2023-02-21T05:40:52;7.80;99.90
32502;DHT22;18952;52.516;13.460;2023-02-21T05:43:19;7.80;99.90
32502;DHT22;18952;52.516;13.460;2023-02-21T05:45:47;7.80;99.90
32502;DHT22;18952;52.516;13.460;2023-02-21T05:48:14;7.80;99.90
32502;DHT22;18952;52.516;13.460;2023-02-21T05:50:41;7.80;99.90
32502;DHT22;18952;52.516;13.460;2023-02-21T05:53:08;7.80;99.90
32502;DHT22;18952;52.516;13.460;2023-02-21T05:55:36;7.80;99.90
32502;DHT22;18952;52.516;13.460;2023-02-21T05:58:03;7.80;99.90
32502;DHT22;18952;52.516;13.460;2023-02-21T06:00:30;7.80;99.90
32502;DHT22;18952;52.516;13.460;2023-02-21T06:02:57;7.80;99.90
32502;DHT22;18952;52.516;13.460;2023-02-21T06:05:24;7.80;99.90
32502;DHT22;18952;52.516;13.460;2023-02-21T06:07:51;7.80;99.90
32502;DHT22;18952;52.516;13.460;2023-02-21T06:10:18;7.80;99.90
32502;DHT22;18952;52.516;13.460;2023-02-21T06:12:45;7.80;99.90
32502;DHT22;18952;52.516;13.460;2023-02-21T06:15:12;7.80;99.90
32502;DHT22;18952;52.516;13.460;2023-02-21T06:17:40;7.80;99.90
32502;DHT22;18952;52.516;13.460;2023-02-21T06:20:10;7.80;99.90
32502;DHT22;18952;52.516;13.460;2023-02-21T06:22:38;7.80;99.90
32502;DHT22;18952;52.516;13.460;2023-02-21T06:25:05;7.80;99.90
32502;DHT22;18952;52.516;13.460;2023-02-21T06:27:32;7.80;99.90
32502;DHT22;18952;52.516;13.460;2023-02-21T06:30:02;7.80;99.90
32502;DHT22;18952;52.516;13.460;2023-02-21T06:32:29;7.80;99.90
32502;DHT22;18952;52.516;13.460;2023-02-21T06:34:56;7.70;99.90
32502;DHT22;18952;52.516;13.460;2023-02-21T06:37:23;7.70;99.90
32502;DHT22;18952;52.516;13.460;2023-02-21T06:39:50;7.70;99.90
32502;DHT22;18952;52.516;13.460;2023-02-21T06:42:17;7.70;99.90
32502;DHT22;18952;52.516;13.460;2023-02-21T06:44:46;7.70;99.90
32502;DHT22;18952;52.516;13.460;2023-02-21T06:47:15;7.80;99.90
32502;DHT22;18952;52.516;13.460;2023-02-21T06:49:42;7.80;99.90
32502;DHT22;18952;52.516;13.460;2023-02-21T06:52:09;7.80;99.90
32502;DHT22;18952;52.516;13.460;2023-02-21T06:54:36;7.80;99.90
32502;DHT22;18952;52.516;13.460;2023-02-21T06:57:04;7.80;99.90
32502;DHT22;18952;52.516;13.460;2023-02-21T06:59:31;7.80;99.90
32502;DHT22;18952;52.516;13.460;2023-02-21T07:01:58;7.80;99.90
32502;DHT22;18952;52.516;13.460;2023-02-21T07:04:25;7.80;99.90
32502;DHT22;18952;52.516;13.460;2023-02-21T07:06:52;7.80;99.90
32502;DHT22;18952;52.516;13.460;2023-02-21T07:09:19;7.80;99.90
32502;DHT22;18952;52.516;13.460;2023-02-21T07:11:46;7.80;99.90
32502;DHT22;18952;52.516;13.460;2023-02-21T07:14:15;7.80;99.90
32502;DHT22;18952;52.516;13.460;2023-02-21T07:16:42;7.80;99.90
32502;DHT22;18952;52.516;13.460;2023-02-21T07:19:09;7.80;99.90
32502;DHT22;18952;52.516;13.460;2023-02-21T07:21:36;7.80;99.90
32502;DHT22;18952;52.516;13.460;2023-02-21T07:24:06;7.80;99.90
32502;DHT22;18952;52.516;13.460;2023-02-21T07:26:33;7.80;99.90
32502;DHT22;18952;52.516;13.460;2023-02-21T07:29:00;7.80;99.90
32502;DHT22;18952;52.516;13.460;2023-02-21T07:31:27;7.80;99.90
32502;DHT22;18952;52.516;13.460;2023-02-21T07:33:54;7.80;99.90
32502;DHT22;18952;52.516;13.460;2023-02-21T07:36:21;7.80;99.90
32502;DHT22;18952;52.516;13.460;2023-02-21T07:38:48;7.80;99.90
32502;DHT22;18952;52.516;13.460;2023-02-21T07:41:16;7.80;99.90
32502;DHT22;18952;52.516;13.460;2023-02-21T07:43:43;7.80;99.90
32502;DHT22;18952;52.516;13.460;2023-02-21T07:46:11;7.80;99.90
32502;DHT22;18952;52.516;13.460;2023-02-21T07:48:38;7.80;99.90
32502;DHT22;18952;52.516;13.460;2023-02-21T07:51:06;7.80;99.90
32502;DHT22;18952;52.516;13.460;2023-02-21T07:53:33;7.80;99.90
32502;DHT22;18952;52.516;13.460;2023-02-21T07:56:01;7.90;99.90
32502;DHT22;18952;52.516;13.460;2023-02-21T07:58:28;7.90;99.90
32502;DHT22;18952;52.516;13.460;2023-02-21T08:00:55;7.90;99.90
32502;DHT22;18952;52.516;13.460;2023-02-21T08:03:22;7.90;99.90
32502;DHT22;18952;52.516;13.460;2023-02-21T08:05:49;7.90;99.90
32502;DHT22;18952;52.516;13.460;2023-02-21T08:08:16;7.90;99.90
32502;DHT22;18952;52.516;13.460;2023-02-21T08:10:44;7.90;99.90
32502;DHT22;18952;52.516;13.460;2023-02-21T08:13:11;7.90;99.90
32502;DHT22;18952;52.516;13.460;2023-02-21T08:15:38;8.00;99.90
32502;DHT22;18952;52.516;13.460;2023-02-21T08:18:18;8.00;99.90
32502;DHT22;18952;52.516;13.460;2023-02-21T08:20:46;8.00;99.90
32502;DHT22;18952;52.516;13.460;2023-02-21T08:23:13;8.00;99.90
32502;DHT22;18952;52.516;13.460;2023-02-21T08:25:40;8.10;99.90
32502;DHT22;18952;52.516;13.460;2023-02-21T08:28:07;8.10;99.90
32502;DHT22;18952;52.516;13.460;2023-02-21T08:30:34;8.20;99.90
32502;DHT22;18952;52.516;13.460;2023-02-21T08:33:01;8.20;99.90
32502;DHT22;18952;52.516;13.460;2023-02-21T08:35:29;8.20;99.90
32502;DHT22;18952;52.516;13.460;2023-02-21T08:37:57;8.20;99.90
32502;DHT22;18952;52.516;13.460;2023-02-21T08:40:24;8.20;99.90
32502;DHT22;18952;52.516;13.460;2023-02-21T08:42:54;8.30;99.90
32502;DHT22;18952;52.516;13.460;2023-02-21T08:45:22;8.30;99.90
32502;DHT22;18952;52.516;13.460;2023-02-21T08:47:50;8.30;99.90
32502;DHT22;18952;52.516;13.460;2023-02-21T08:50:19;8.30;99.90
32502;DHT22;18952;52.516;13.460;2023-02-21T08:52:47;8.30;99.90
32502;DHT22;18952;52.516;13.460;2023-02-21T08:55:15;8.30;99.90
32502;DHT22;18952;52.516;13.460;2023-02-21T08:57:42;8.30;99.90
32502;DHT22;18952;52.516;13.460;2023-02-21T09:00:12;8.40;99.90
32502;DHT22;18952;52.516;13.460;2023-02-21T09:02:39;8.40;99.90
32502;DHT22;18952;52.516;13.460;2023-02-21T09:05:19;8.40;99.90
32502;DHT22;18952;52.516;13.460;2023-02-21T09:07:51;8.40;99.90
32502;DHT22;18952;52.516;13.460;2023-02-21T09:10:18;8.50;99.90
32502;DHT22;18952;52.516;13.460;2023-02-21T09:12:45;8.50;99.90
32502;DHT22;18952;52.516;13.460;2023-02-21T09:15:15;8.50;99.90
32502;DHT22;18952;52.516;13.460;2023-02-21T09:17:43;8.50;99.90
32502;DHT22;18952;52.516;13.460;2023-02-21T09:20:13;8.50;99.90
32502;DHT22;18952;52.516;13.460;2023-02-21T09:22:44;8.50;99.90
32502;DHT22;18952;52.516;13.460;2023-02-21T09:25:12;8.60;99.90
32502;DHT22;18952;52.516;13.460;2023-02-21T09:27:39;8.60;99.90
32502;DHT22;18952;52.516;13.460;2023-02-21T09:30:11;8.60;99.90
32502;DHT22;18952;52.516;13.460;2023-02-21T09:32:39;8.60;99.90
32502;DHT22;18952;52.516;13.460;2023-02-21T09:35:07;8.60;99.90
32502;DHT22;18952;52.516;13.460;2023-02-21T09:37:38;8.60;99.90
32502;DHT22;18952;52.516;13.460;2023-02-21T09:40:59;8.60;99.90
32502;DHT22;18952;52.516;13.460;2023-02-21T09:43:23;8.60;99.90
32502;DHT22;18952;52.516;13.460;2023-02-21T09:45:53;8.60;99.90
32502;DHT22;18952;52.516;13.460;2023-02-21T09:48:25;8.60;99.90
32502;DHT22;18952;52.516;13.460;2023-02-21T09:50:58;8.60;99.90
32502;DHT22;18952;52.516;13.460;2023-02-21T09:53:30;8.60;99.90
32502;DHT22;18952;52.516;13.460;2023-02-21T09:56:07;8.60;99.90
32502;DHT22;18952;52.516;13.460;2023-02-21T09:58:41;8.60;99.90
32502;DHT22;18952;52.516;13.460;2023-02-21T10:06:51;8.70;99.90
32502;DHT22;18952;52.516;13.460;2023-02-21T10:17:33;8.70;99.90
32502;DHT22;18952;52.516;13.460;2023-02-21T10:20:19;8.80;99.90
32502;DHT22;18952;52.516;13.460;2023-02-21T10:22:49;8.80;99.90
32502;DHT22;18952;52.516;13.460;2023-02-21T10:25:25;8.80;99.90
32502;DHT22;18952;52.516;13.460;2023-02-21T10:27:52;8.80;99.90
32502;DHT22;18952;52.516;13.460;2023-02-21T10:30:31;8.80;99.90
32502;DHT22;18952;52.516;13.460;2023-02-21T10:32:59;8.80;99.90
32502;DHT22;18952;52.516;13.460;2023-02-21T10:35:26;8.80;99.90
32502;DHT22;18952;52.516;13.460;2023-02-21T10:37:58;8.90;99.90
32502;DHT22;18952;52.516;13.460;2023-02-21T10:40:33;8.90;99.90
32502;DHT22;18952;52.516;13.460;2023-02-21T10:48:18;9.00;99.90
32502;DHT22;18952;52.516;13.460;2023-02-21T10:51:29;9.00;99.90
32502;DHT22;18952;52.516;13.460;2023-02-21T10:54:20;9.10;99.90
32502;DHT22;18952;52.516;13.460;2023-02-21T10:56:52;9.10;99.90
32502;DHT22;18952;52.516;13.460;2023-02-21T10:59:26;9.10;99.90
32502;DHT22;18952;52.516;13.460;2023-02-21T11:01:56;9.20;99.90
32502;DHT22;18952;52.516;13.460;2023-02-21T11:04:26;9.20;99.90
32502;DHT22;18952;52.516;13.460;2023-02-21T11:09:33;9.20;99.90
32502;DHT22;18952;52.516;13.460;2023-02-21T11:12:17;9.30;99.90
32502;DHT22;18952;52.516;13.460;2023-02-21T11:17:22;9.50;99.90
32502;DHT22;18952;52.516;13.460;2023-02-21T11:22:44;9.50;99.90
32502;DHT22;18952;52.516;13.460;2023-02-21T11:25:32;9.40;99.90
32502;DHT22;18952;52.516;13.460;2023-02-21T11:30:36;9.30;99.90
32502;DHT22;18952;52.516;13.460;2023-02-21T11:33:05;9.30;99.90
32502;DHT22;18952;52.516;13.460;2023-02-21T11:35:43;9.30;99.90
32502;DHT22;18952;52.516;13.460;2023-02-21T11:38:32;9.30;99.90
32502;DHT22;18952;52.516;13.460;2023-02-21T11:41:02;9.40;99.90
32502;DHT22;18952;52.516;13.460;2023-02-21T11:43:31;9.30;99.90
32502;DHT22;18952;52.516;13.460;2023-02-21T11:55:15;9.20;99.90
32502;DHT22;18952;52.516;13.460;2023-02-21T12:03:24;9.30;99.90
32502;DHT22;18952;52.516;13.460;2023-02-21T12:06:17;9.30;99.90
32502;DHT22;18952;52.516;13.460;2023-02-21T12:09:00;9.20;99.90
32502;DHT22;18952;52.516;13.460;2023-02-21T12:11:50;9.30;99.90
32502;DHT22;18952;52.516;13.460;2023-02-21T12:28:46;9.40;99.90
32502;DHT22;18952;52.516;13.460;2023-02-21T12:36:37;9.60;99.90
32502;DHT22;18952;52.516;13.460;2023-02-21T12:45:29;9.50;99.90
32502;DHT22;18952;52.516;13.460;2023-02-21T12:50:25;9.50;99.90
32502;DHT22;18952;52.516;13.460;2023-02-21T12:55:39;9.60;99.90
32502;DHT22;18952;52.516;13.460;2023-02-21T12:58:33;9.50;99.90
32502;DHT22;18952;52.516;13.460;2023-02-21T13:01:06;9.50;99.90
32502;DHT22;18952;52.516;13.460;2023-02-21T13:06:19;9.40;99.90
32502;DHT22;18952;52.516;13.460;2023-02-21T13:14:47;9.30;99.90
32502;DHT22;18952;52.516;13.460;2023-02-21T13:17:16;9.30;99.90
32502;DHT22;18952;52.516;13.460;2023-02-21T13:20:02;9.30;99.90
32502;DHT22;18952;52.516;13.460;2023-02-21T13:28:09;9.40;99.90
32502;DHT22;18952;52.516;13.460;2023-02-21T13:31:00;9.50;99.90
32502;DHT22;18952;52.516;13.460;2023-02-21T13:33:44;9.40;99.90
32502;DHT22;18952;52.516;13.460;2023-02-21T13:39:14;9.40;99.90
32502;DHT22;18952;52.516;13.460;2023-02-21T13:41:51;9.40;99.90
32502;DHT22;18952;52.516;13.460;2023-02-21T13:44:32;9.50;99.90
32502;DHT22;18952;52.516;13.460;2023-02-21T13:47:01;9.50;99.90
32502;DHT22;18952;52.516;13.460;2023-02-21T13:49:49;9.40;99.90
32502;DHT22;18952;52.516;13.460;2023-02-21T14:08:25;9.50;99.90
32502;DHT22;18952;52.516;13.460;2023-02-21T14:13:40;9.50;99.90
32502;DHT22;18952;52.516;13.460;2023-02-21T14:18:51;9.40;99.90
32502;DHT22;18952;52.516;13.460;2023-02-21T14:29:28;9.40;99.90
32502;DHT22;18952;52.516;13.460;2023-02-21T14:34:36;9.50;99.90
32502;DHT22;18952;52.516;13.460;2023-02-21T14:37:35;9.40;99.90
32502;DHT22;18952;52.516;13.460;2023-02-21T14:40:16;9.50;99.90
32502;DHT22;18952;52.516;13.460;2023-02-21T14:48:29;9.40;99.90
32502;DHT22;18952;52.516;13.460;2023-02-21T15:02:43;9.30;99.90
32502;DHT22;18952;52.516;13.460;2023-02-21T15:08:03;9.20;99.90
32502;DHT22;18952;52.516;13.460;2023-02-21T15:10:39;9.20;99.90
32502;DHT22;18952;52.516;13.460;2023-02-21T15:13:21;9.20;99.90
32502;DHT22;18952;52.516;13.460;2023-02-21T15:15:58;9.20;99.90
32502;DHT22;18952;52.516;13.460;2023-02-21T15:18:34;9.20;99.90
32502;DHT22;18952;52.516;13.460;2023-02-21T15:23:42;9.10;99.90
32502;DHT22;18952;52.516;13.460;2023-02-21T15:26:30;9.10;99.90
32502;DHT22;18952;52.516;13.460;2023-02-21T15:29:14;9.20;99.90
32502;DHT22;18952;52.516;13.460;2023-02-21T15:31:47;9.30;99.90
32502;DHT22;18952;52.516;13.460;2023-02-21T15:34:20;9.20;99.90
32502;DHT22;18952;52.516;13.460;2023-02-21T15:36:57;9.20;99.90
32502;DHT22;18952;52.516;13.460;2023-02-21T15:39:32;9.10;99.90
32502;DHT22;18952;52.516;13.460;2023-02-21T15:42:01;9.10;99.90
32502;DHT22;18952;52.516;13.460;2023-02-21T15:44:33;9.10;99.90
32502;DHT22;18952;52.516;13.460;2023-02-21T15:47:11;9.10;99.90
32502;DHT22;18952;52.516;13.460;2023-02-21T15:49:44;9.00;99.90
32502;DHT22;18952;52.516;13.460;2023-02-21T15:52:39;9.00;99.90
32502;DHT22;18952;52.516;13.460;2023-02-21T15:57:45;9.00;99.90
32502;DHT22;18952;52.516;13.460;2023-02-21T16:02:43;8.90;99.90
32502;DHT22;18952;52.516;13.460;2023-02-21T16:05:28;8.90;99.90
32502;DHT22;18952;52.516;13.460;2023-02-21T16:08:02;8.90;99.90
32502;DHT22;18952;52.516;13.460;2023-02-21T16:10:30;8.80;99.90
32502;DHT22;18952;52.516;13.460;2023-02-21T16:12:59;8.80;99.90
32502;DHT22;18952;52.516;13.460;2023-02-21T16:15:32;8.80;99.90
32502;DHT22;18952;52.516;13.460;2023-02-21T16:18:08;8.80;99.90
32502;DHT22;18952;52.516;13.460;2023-02-21T16:20:41;8.80;99.90
32502;DHT22;18952;52.516;13.460;2023-02-21T16:23:30;8.80;99.90
32502;DHT22;18952;52.516;13.460;2023-02-21T16:26:02;8.80;99.90
32502;DHT22;18952;52.516;13.460;2023-02-21T16:28:44;8.80;99.90
32502;DHT22;18952;52.516;13.460;2023-02-21T16:31:29;8.70;99.90
32502;DHT22;18952;52.516;13.460;2023-02-21T16:33:57;8.70;99.90
32502;DHT22;18952;52.516;13.460;2023-02-21T16:36:29;8.70;99.90
32502;DHT22;18952;52.516;13.460;2023-02-21T16:38:57;8.70;99.90
32502;DHT22;18952;52.516;13.460;2023-02-21T16:41:25;8.70;99.90
32502;DHT22;18952;52.516;13.460;2023-02-21T16:43:52;8.60;99.90
32502;DHT22;18952;52.516;13.460;2023-02-21T16:46:24;8.60;99.90
32502;DHT22;18952;52.516;13.460;2023-02-21T16:48:55;8.60;99.90
32502;DHT22;18952;52.516;13.460;2023-02-21T16:51:23;8.60;99.90
32502;DHT22;18952;52.516;13.460;2023-02-21T16:53:50;8.60;99.90
32502;DHT22;18952;52.516;13.460;2023-02-21T16:56:16;8.60;99.90
32502;DHT22;18952;52.516;13.460;2023-02-21T16:58:49;8.60;99.90
32502;DHT22;18952;52.516;13.460;2023-02-21T17:01:29;8.60;99.90
32502;DHT22;18952;52.516;13.460;2023-02-21T17:03:57;8.70;99.90
32502;DHT22;18952;52.516;13.460;2023-02-21T17:06:25;8.60;99.90
32502;DHT22;18952;52.516;13.460;2023-02-21T17:08:52;8.60;99.90
32502;DHT22;18952;52.516;13.460;2023-02-21T17:11:20;8.60;99.90
32502;DHT22;18952;52.516;13.460;2023-02-21T17:13:47;8.50;99.90
32502;DHT22;18952;52.516;13.460;2023-02-21T17:16:14;8.50;99.90
32502;DHT22;18952;52.516;13.460;2023-02-21T17:18:42;8.50;99.90
32502;DHT22;18952;52.516;13.460;2023-02-21T17:21:09;8.60;99.90
32502;DHT22;18952;52.516;13.460;2023-02-21T17:23:37;8.50;99.90
32502;DHT22;18952;52.516;13.460;2023-02-21T17:26:04;8.50;99.90
32502;DHT22;18952;52.516;13.460;2023-02-21T17:28:30;8.50;99.90
32502;DHT22;18952;52.516;13.460;2023-02-21T17:30:58;8.50;99.90
32502;DHT22;18952;52.516;13.460;2023-02-21T17:33:25;8.50;99.90
32502;DHT22;18952;52.516;13.460;2023-02-21T17:36:04;8.50;99.90
32502;DHT22;18952;52.516;13.460;2023-02-21T17:38:37;8.50;99.90
32502;DHT22;18952;52.516;13.460;2023-02-21T17:41:10;8.50;99.90
32502;DHT22;18952;52.516;13.460;2023-02-21T17:43:41;8.50;99.90
32502;DHT22;18952;52.516;13.460;2023-02-21T17:46:10;8.40;99.90
32502;DHT22;18952;52.516;13.460;2023-02-21T17:48:40;8.40;99.90
32502;DHT22;18952;52.516;13.460;2023-02-21T17:51:41;8.40;99.90
32502;DHT22;18952;52.516;13.460;2023-02-21T17:57:45;8.40;99.90
32502;DHT22;18952;52.516;13.460;2023-02-21T18:00:28;8.30;99.90
32502;DHT22;18952;52.516;13.460;2023-02-21T18:03:16;8.30;99.90
32502;DHT22;18952;52.516;13.460;2023-02-21T18:06:05;8.30;99.90
32502;DHT22;18952;52.516;13.460;2023-02-21T18:08:32;8.30;99.90
32502;DHT22;18952;52.516;13.460;2023-02-21T18:11:01;8.30;99.90
32502;DHT22;18952;52.516;13.460;2023-02-21T18:13:28;8.30;99.90
32502;DHT22;18952;52.516;13.460;2023-02-21T18:15:55;8.40;99.90
32502;DHT22;18952;52.516;13.460;2023-02-21T18:18:22;8.40;99.90
32502;DHT22;18952;52.516;13.460;2023-02-21T18:20:49;8.40;99.90
32502;DHT22;18952;52.516;13.460;2023-02-21T18:23:15;8.40;99.90
32502;DHT22;18952;52.516;13.460;2023-02-21T18:25:42;8.40;99.90
32502;DHT22;18952;52.516;13.460;2023-02-21T18:28:09;8.40;99.90
32502;DHT22;18952;52.516;13.460;2023-02-21T18:30:36;8.40;99.90
32502;DHT22;18952;52.516;13.460;2023-02-21T18:33:03;8.30;99.90
32502;DHT22;18952;52.516;13.460;2023-02-21T18:35:30;8.30;99.90
32502;DHT22;18952;52.516;13.460;2023-02-21T18:37:57;8.30;99.90
32502;DHT22;18952;52.516;13.460;2023-02-21T18:40:24;8.30;99.90
32502;DHT22;18952;52.516;13.460;2023-02-21T18:42:51;8.30;99.90
32502;DHT22;18952;52.516;13.460;2023-02-21T18:45:18;8.30;99.90
32502;DHT22;18952;52.516;13.460;2023-02-21T18:47:45;8.30;99.90
32502;DHT22;18952;52.516;13.460;2023-02-21T18:50:12;8.30;99.90
32502;DHT22;18952;52.516;13.460;2023-02-21T18:52:39;8.30;99.90
32502;DHT22;18952;52.516;13.460;2023-02-21T18:55:06;8.20;99.90
32502;DHT22;18952;52.516;13.460;2023-02-21T18:57:33;8.20;99.90
32502;DHT22;18952;52.516;13.460;2023-02-21T19:00:00;8.20;99.90
32502;DHT22;18952;52.516;13.460;2023-02-21T19:02:27;8.10;99.90
32502;DHT22;18952;52.516;13.460;2023-02-21T19:04:54;8.10;99.90
32502;DHT22;18952;52.516;13.460;2023-02-21T19:07:21;8.10;99.90
32502;DHT22;18952;52.516;13.460;2023-02-21T19:09:48;8.10;99.90
32502;DHT22;18952;52.516;13.460;2023-02-21T19:12:15;8.10;99.90